Details for EasyJet at LIRF




Go Back


Latest METAR
Local Time

LIRF 240720Z VRB03KT CAVOK 21/15 Q1017 NOSIG

24/05/2018, 09:54:29

Description
Results
EasyJet Logo
Number of Pilots based at LIRF
0 Pilots Based here
Number of EasyJet Flights Departed from LIRF
5 Flights Departed
Number of EasyJet Flights Arrived at LIRF
2 Flights Arrived
Number of EasyJet Schedules Departing from LIRF
71 Schedules
Number of EasyJet Schedules Arriving at LIRF
73 Schedules
Number of EasyJet Schedules Departing from LIRF availible today
22 Schedules Today
Number of EasyJet Schedules Arriving at LIRF availible today
25 Schedules Today
Average Landing Rate at LIRF
-188 fpm
EasyJet Average Landing Rate at LIRF
-35 fpm
Total Fuel Purchased at LIRF by EasyJet
16,763.42 kgs / 36,956.64 lbs

Pilots Based at LIRF


Pilot ID
Pilot Name
Pilot Rank
No. of Flights
No. of Flying Hours
There are no pilots assigned to this hub!   Will you be the first?
Content